Time;durP1;ratioP1;P1;durP2;ratioP2;P2;SDS_P1;SDS_P2;PMS_P1;PMS_P2;Temp;Humidity;BMP_temperature;BMP_pressure;BME280_temperature;BME280_humidity;BME280_pressure;Samples;Min_cycle;Max_cycle;Signal;HPM_P1;HPM_P2
2022/03/10 00:00:24;;;;;;;58.22;39.88;;;8.70;71.70;;;;;;4995904;28;20403;-85
2022/03/10 00:02:50;;;;;;;56.03;38.13;;;8.60;71.70;;;;;;4997519;28;20037;-84
2022/03/10 00:05:18;;;;;;;54.35;36.63;;;8.50;72.30;;;;;;5003642;28;20053;-84
2022/03/10 00:07:44;;;;;;;55.05;35.90;;;8.50;72.60;;;;;;5012965;28;20234;-83
2022/03/10 00:10:10;;;;;;;66.70;39.17;;;8.60;72.00;;;;;;5014707;28;20120;-83
2022/03/10 00:12:36;;;;;;;57.70;37.38;;;8.60;71.80;;;;;;5004670;28;20050;-82
2022/03/10 00:15:09;;;;;;;53.65;35.97;;;8.60;72.30;;;;;;5009395;28;20043;-82
2022/03/10 00:17:35;;;;;;;59.28;36.50;;;8.60;72.00;;;;;;5011810;28;20069;-82
2022/03/10 00:20:01;;;;;;;56.65;37.50;;;8.50;72.50;;;;;;5009329;28;20438;-83
2022/03/10 00:22:26;;;;;;;67.70;38.85;;;8.50;72.40;;;;;;5013713;28;20066;-83
2022/03/10 00:24:52;;;;;;;55.65;36.22;;;8.50;72.70;;;;;;4979028;28;20046;-83
2022/03/10 00:27:18;;;;;;;58.13;38.95;;;8.40;73.00;;;;;;5016432;28;20040;-83
2022/03/10 00:29:43;;;;;;;61.40;39.95;;;8.40;73.10;;;;;;5008072;28;20423;-83
2022/03/10 00:32:09;;;;;;;58.38;38.30;;;8.30;73.40;;;;;;5000367;28;20042;-83
2022/03/10 00:34:35;;;;;;;56.35;36.70;;;8.30;73.10;;;;;;5011162;28;20070;-82
2022/03/10 00:37:01;;;;;;;62.65;38.00;;;8.30;72.90;;;;;;4995795;28;20034;-82
2022/03/10 00:39:27;;;;;;;65.78;41.55;;;8.30;73.20;;;;;;5005926;28;20042;-82
2022/03/10 00:41:53;;;;;;;65.47;40.50;;;8.10;73.40;;;;;;5020325;28;20057;-83
2022/03/10 00:44:18;;;;;;;65.43;41.38;;;8.00;74.00;;;;;;5009787;28;20041;-83
2022/03/10 00:46:44;;;;;;;68.22;41.88;;;7.90;74.50;;;;;;5010274;28;20042;-83
2022/03/10 00:49:10;;;;;;;91.97;42.33;;;7.90;74.50;;;;;;5000239;28;20030;-83
2022/03/10 00:51:37;;;;;;;75.93;42.05;;;7.90;74.90;;;;;;5005289;28;20068;-81
2022/03/10 00:54:03;;;;;;;75.43;41.00;;;7.80;75.10;;;;;;5002568;28;20034;-83
2022/03/10 00:56:28;;;;;;;75.35;42.85;;;7.80;75.30;;;;;;5017777;28;20050;-81
2022/03/10 00:58:54;;;;;;;64.55;42.15;;;7.70;75.60;;;;;;5008548;28;20050;-80
2022/03/10 01:01:20;;;;;;;66.35;39.03;;;7.60;75.80;;;;;;5002665;28;20085;-82
2022/03/10 01:03:45;;;;;;;72.68;39.90;;;7.70;75.60;;;;;;4994930;28;20050;-82
2022/03/10 01:06:11;;;;;;;68.40;39.83;;;7.70;74.90;;;;;;4991031;28;20088;-82
2022/03/10 01:08:37;;;;;;;62.20;41.67;;;7.80;74.60;;;;;;5007079;28;20046;-82
2022/03/10 01:11:02;;;;;;;71.03;44.13;;;7.70;75.40;;;;;;5008759;28;20049;-81
2022/03/10 01:13:28;;;;;;;65.88;41.40;;;7.60;76.10;;;;;;5001876;28;20454;-81
2022/03/10 01:15:54;;;;;;;66.85;40.80;;;7.50;76.60;;;;;;5002316;28;20546;-82
2022/03/10 01:18:19;;;;;;;61.30;40.47;;;7.40;76.60;;;;;;5004649;28;20042;-81
2022/03/10 01:20:45;;;;;;;58.88;39.28;;;7.40;76.80;;;;;;5010282;28;20169;-82
2022/03/10 01:23:11;;;;;;;71.15;44.15;;;7.50;76.60;;;;;;4996243;28;20035;-82
2022/03/10 01:25:38;;;;;;;68.40;44.00;;;7.40;76.50;;;;;;4990486;28;20053;-81
2022/03/10 01:28:04;;;;;;;67.72;43.63;;;7.30;77.00;;;;;;5001687;28;20037;-82
2022/03/10 01:30:30;;;;;;;64.68;43.10;;;7.20;77.40;;;;;;4997326;28;20030;-82
2022/03/10 01:32:56;;;;;;;67.13;43.05;;;7.10;77.80;;;;;;5010370;28;20456;-82
2022/03/10 01:35:21;;;;;;;70.65;43.40;;;7.00;78.00;;;;;;4983847;28;20033;-82
2022/03/10 01:37:47;;;;;;;71.18;44.90;;;7.00;78.30;;;;;;5009964;28;20045;-82
2022/03/10 01:40:16;;;;;;;69.47;42.70;;;6.90;78.60;;;;;;5006369;28;20072;-81
2022/03/10 01:42:43;;;;;;;68.35;44.00;;;6.90;78.70;;;;;;4999740;28;20072;-81
2022/03/10 01:45:10;;;;;;;71.30;42.10;;;6.90;79.00;;;;;;5023171;28;20113;-82
2022/03/10 01:47:36;;;;;;;67.32;41.08;;;6.80;78.90;;;;;;5003835;28;20046;-81
2022/03/10 01:50:03;;;;;;;65.40;41.53;;;6.90;78.80;;;;;;5001210;28;20073;-80
2022/03/10 01:52:29;;;;;;;67.22;41.35;;;7.00;78.10;;;;;;5009666;28;20073;-82
2022/03/10 01:54:56;;;;;;;68.70;44.50;;;7.10;77.30;;;;;;4990279;28;20038;-82
2022/03/10 01:57:23;;;;;;;64.43;40.53;;;7.10;77.50;;;;;;5003031;28;20058;-82
2022/03/10 01:59:49;;;;;;;72.20;40.67;;;7.00;77.90;;;;;;5001072;28;20038;-81
2022/03/10 02:02:15;;;;;;;62.50;39.67;;;7.00;77.50;;;;;;5007882;28;20045;-81
2022/03/10 02:04:41;;;;;;;67.60;40.97;;;7.00;77.40;;;;;;5016946;28;20116;-81
2022/03/10 02:10:16;;;;;;;63.38;39.92;;;7.10;76.90;;;;;;5019280;28;20042;-81
2022/03/10 02:12:41;;;;;;;63.75;40.67;;;7.00;76.90;;;;;;5000141;28;20418;-81
2022/03/10 02:18:12;;;;;;;65.88;43.53;;;6.80;78.00;;;;;;5007298;28;20400;-81
2022/03/10 02:20:39;;;;;;;67.70;43.45;;;6.70;78.50;;;;;;5009256;28;20034;-81
2022/03/10 02:23:08;;;;;;;68.85;43.55;;;6.70;78.60;;;;;;4999001;28;20034;-81
2022/03/10 02:25:36;;;;;;;65.97;42.60;;;6.60;78.90;;;;;;5003897;28;20470;-81
2022/03/10 02:28:02;;;;;;;61.53;42.00;;;6.60;79.00;;;;;;5008662;28;20039;-81
2022/03/10 02:30:29;;;;;;;65.65;42.47;;;6.50;79.20;;;;;;5008913;28;20484;-81
2022/03/10 02:32:56;;;;;;;68.22;42.90;;;6.50;79.20;;;;;;4992076;28;20065;-81
2022/03/10 02:35:21;;;;;;;69.80;44.05;;;6.60;78.80;;;;;;5000670;28;20050;-81
2022/03/10 02:37:47;;;;;;;71.53;44.67;;;6.50;79.40;;;;;;5020746;28;20034;-81
2022/03/10 02:40:13;;;;;;;77.50;47.00;;;6.50;79.70;;;;;;5004805;28;20033;-81
2022/03/10 02:42:39;;;;;;;73.72;45.15;;;6.40;79.90;;;;;;5011489;28;20116;-81
2022/03/10 02:45:06;;;;;;;81.50;46.70;;;6.30;80.00;;;;;;4997532;28;20109;-79
2022/03/10 02:47:32;;;;;;;76.40;49.13;;;6.20;80.40;;;;;;5004664;28;20038;-80
2022/03/10 02:49:58;;;;;;;80.40;47.78;;;6.20;80.80;;;;;;5008970;28;20038;-80
2022/03/10 02:52:24;;;;;;;78.10;46.90;;;6.10;81.50;;;;;;5001101;28;20049;-80
2022/03/10 02:54:50;;;;;;;76.78;44.42;;;6.00;81.60;;;;;;5004038;28;20066;-79
2022/03/10 02:57:16;;;;;;;79.75;49.85;;;6.00;81.40;;;;;;4999600;28;20040;-81
2022/03/10 02:59:42;;;;;;;75.97;47.78;;;6.00;82.30;;;;;;5008772;28;20455;-81
2022/03/10 03:02:08;;;;;;;81.60;49.95;;;5.90;82.10;;;;;;5009950;28;20099;-80
2022/03/10 03:04:34;;;;;;;76.15;48.38;;;5.90;82.50;;;;;;4996256;28;20528;-80
2022/03/10 03:07:00;;;;;;;81.78;49.33;;;5.90;82.30;;;;;;4992577;28;20038;-80
2022/03/10 03:09:26;;;;;;;80.35;48.63;;;5.80;82.70;;;;;;4996006;28;20054;-80
2022/03/10 03:11:52;;;;;;;83.13;49.28;;;5.70;82.90;;;;;;5006369;28;20047;-81
2022/03/10 03:14:22;;;;;;;84.13;49.65;;;5.70;83.10;;;;;;5005973;28;20046;-81
2022/03/10 03:16:48;;;;;;;;;;;5.70;83.30;;;;;;5000755;28;20129;-81
2022/03/10 03:19:14;;;;;;;79.63;49.25;;;5.70;83.00;;;;;;4995821;28;19913;-81
2022/03/10 03:21:40;;;;;;;73.20;46.25;;;5.70;82.70;;;;;;5001553;28;20094;-82
2022/03/10 03:24:05;;;;;;;78.45;46.55;;;5.70;82.90;;;;;;5009793;28;20076;-81
2022/03/10 03:26:31;;;;;;;74.97;47.30;;;5.70;82.50;;;;;;5015194;28;20080;-80
2022/03/10 03:28:57;;;;;;;77.05;47.35;;;5.70;82.20;;;;;;4995242;28;20507;-81
2022/03/10 03:31:22;;;;;;;75.20;46.53;;;5.80;81.80;;;;;;5009913;28;20479;-81
2022/03/10 03:33:50;;;;;;;77.80;47.83;;;5.70;81.60;;;;;;5009094;28;20402;-80
2022/03/10 03:36:16;;;;;;;72.45;45.92;;;5.70;81.40;;;;;;5009884;28;20065;-80
2022/03/10 03:38:41;;;;;;;80.72;47.95;;;5.70;81.20;;;;;;4997185;28;20041;-80
2022/03/10 03:41:07;;;;;;;76.95;46.10;;;5.70;81.10;;;;;;5011403;28;20121;-81
2022/03/10 03:43:32;;;;;;;78.38;45.40;;;5.70;80.50;;;;;;5009035;28;20034;-80
2022/03/10 03:45:58;;;;;;;73.22;45.80;;;5.80;80.10;;;;;;4999473;28;20041;-81
2022/03/10 03:48:25;;;;;;;74.72;44.13;;;5.70;79.30;;;;;;5018749;28;20410;-81
2022/03/10 03:50:51;;;;;;;69.70;43.38;;;5.70;78.80;;;;;;5011689;28;20042;-81
2022/03/10 03:53:17;;;;;;;74.57;43.72;;;5.70;78.30;;;;;;5000962;28;20053;-81
2022/03/10 03:55:43;;;;;;;74.53;45.97;;;5.70;77.70;;;;;;5021636;28;20096;-80
2022/03/10 03:58:09;;;;;;;72.63;45.42;;;5.60;78.40;;;;;;5002583;28;20042;-80
2022/03/10 04:00:36;;;;;;;78.88;48.70;;;5.50;79.00;;;;;;4997368;28;20404;-80
2022/03/10 04:03:09;;;;;;;76.72;46.38;;;5.40;79.40;;;;;;5013836;28;20036;-79
2022/03/10 04:05:35;;;;;;;75.45;45.35;;;5.30;79.30;;;;;;5006786;28;20491;-80
2022/03/10 04:08:01;;;;;;;71.63;45.20;;;5.30;79.60;;;;;;5007100;28;20101;-80
2022/03/10 04:10:27;;;;;;;71.43;42.58;;;5.20;79.00;;;;;;5012783;28;20133;-81
2022/03/10 04:12:52;;;;;;;70.28;44.67;;;5.20;78.90;;;;;;5017429;28;20026;-80
2022/03/10 04:15:18;;;;;;;76.70;41.97;;;5.30;78.40;;;;;;5008946;28;20510;-80
2022/03/10 04:17:44;;;;;;;73.00;44.90;;;5.30;78.10;;;;;;5004201;28;20509;-81
2022/03/10 04:20:13;;;;;;;74.20;44.92;;;5.40;77.50;;;;;;5012821;28;20041;-80
2022/03/10 04:22:39;;;;;;;76.07;45.05;;;5.40;77.00;;;;;;4998899;28;20538;-80
2022/03/10 04:25:08;;;;;;;73.10;45.88;;;5.40;76.70;;;;;;4999387;28;20030;-82
2022/03/10 04:27:35;;;;;;;66.67;39.67;;;5.40;77.10;;;;;;5010300;28;20046;-81
2022/03/10 04:30:02;;;;;;;70.82;42.45;;;5.40;77.00;;;;;;5006196;28;20434;-82
2022/03/10 04:32:27;;;;;;;74.25;44.03;;;5.50;76.40;;;;;;4999380;28;20440;-81
2022/03/10 04:34:53;;;;;;;72.70;43.05;;;5.40;75.90;;;;;;4985335;28;20089;-82
2022/03/10 04:37:19;;;;;;;66.93;42.60;;;5.40;76.30;;;;;;4993771;28;20397;-81
2022/03/10 04:39:44;;;;;;;75.50;43.72;;;5.40;76.20;;;;;;5011315;28;20626;-82
2022/03/10 04:42:10;;;;;;;75.32;43.40;;;5.40;76.30;;;;;;5002564;28;20123;-81
2022/03/10 04:44:36;;;;;;;67.10;40.63;;;5.40;76.20;;;;;;5009464;28;20037;-81
2022/03/10 04:47:01;;;;;;;74.72;43.55;;;5.50;75.50;;;;;;4998152;28;20398;-81
2022/03/10 04:49:27;;;;;;;72.00;43.13;;;5.50;75.50;;;;;;5006670;28;20046;-81
2022/03/10 04:51:53;;;;;;;69.63;44.05;;;5.50;75.50;;;;;;5003760;28;20038;-81
2022/03/10 04:54:18;;;;;;;69.70;44.67;;;5.40;76.10;;;;;;5018568;28;20042;-81
2022/03/10 04:56:44;;;;;;;78.40;45.03;;;5.20;76.40;;;;;;5015577;28;20095;-81
2022/03/10 04:59:10;;;;;;;71.38;45.25;;;5.20;76.80;;;;;;5013305;28;20478;-81
2022/03/10 05:01:37;;;;;;;69.43;44.08;;;5.10;77.20;;;;;;5021035;28;20049;-81
2022/03/10 05:04:02;;;;;;;72.15;44.33;;;5.10;77.50;;;;;;5019803;28;20041;-81
2022/03/10 05:06:28;;;;;;;78.28;43.63;;;5.10;77.00;;;;;;5009654;28;20491;-80
2022/03/10 05:08:53;;;;;;;79.28;44.50;;;5.10;77.30;;;;;;5005639;28;20378;-80
2022/03/10 05:11:19;;;;;;;77.70;44.95;;;5.20;76.60;;;;;;5014329;28;20042;-80
2022/03/10 05:13:45;;;;;;;72.45;44.55;;;5.20;77.20;;;;;;5010567;28;20396;-80
2022/03/10 05:16:10;;;;;;;76.85;44.50;;;5.10;76.90;;;;;;4994635;28;20383;-80
2022/03/10 05:18:36;;;;;;;75.18;44.33;;;5.10;77.10;;;;;;5007728;28;20034;-80
2022/03/10 05:21:02;;;;;;;71.95;43.83;;;5.00;76.80;;;;;;4997164;28;20042;-80
2022/03/10 05:23:27;;;;;;;71.88;43.35;;;5.10;76.80;;;;;;5011996;28;20064;-80
2022/03/10 05:25:53;;;;;;;66.30;42.28;;;5.10;76.40;;;;;;5009513;28;20043;-79
2022/03/10 05:28:19;;;;;;;71.68;44.50;;;5.10;76.40;;;;;;5007011;28;20034;-79
2022/03/10 05:30:45;;;;;;;71.00;44.67;;;5.10;76.40;;;;;;4998102;28;20046;-80
2022/03/10 05:33:12;;;;;;;69.05;41.58;;;5.20;76.20;;;;;;5007141;28;20066;-81
2022/03/10 05:35:38;;;;;;;66.63;41.75;;;5.20;75.90;;;;;;4999700;28;20038;-81
2022/03/10 05:38:04;;;;;;;64.85;41.13;;;5.40;75.20;;;;;;5006134;28;20046;-80
2022/03/10 05:40:30;;;;;;;70.40;42.05;;;5.50;74.40;;;;;;5016359;28;20041;-81
2022/03/10 05:42:56;;;;;;;65.50;42.22;;;5.60;74.40;;;;;;4977680;28;20034;-81
2022/03/10 05:45:25;;;;;;;69.10;42.90;;;5.70;73.80;;;;;;4989830;28;20076;-81
2022/03/10 05:47:55;;;;;;;68.10;43.13;;;5.60;74.90;;;;;;4989113;28;20045;-81
2022/03/10 05:50:21;;;;;;;;;;;5.50;73.40;;;;;;5008991;28;20050;-81
2022/03/10 05:52:47;;;;;;;73.53;43.13;;;5.40;74.30;;;;;;5011442;28;19916;-81
2022/03/10 05:55:14;;;;;;;69.55;44.25;;;5.40;74.40;;;;;;5008429;28;20034;-80
2022/03/10 05:57:40;;;;;;;77.47;44.35;;;5.30;74.40;;;;;;5063113;23;20058;-83
2022/03/10 06:00:10;;;;;;;67.90;43.13;;;5.20;74.40;;;;;;5010165;28;20046;-85
2022/03/10 06:02:36;;;;;;;83.07;46.93;;;5.20;73.90;;;;;;5009887;28;20469;-80
2022/03/10 06:05:02;;;;;;;71.68;43.70;;;5.20;73.60;;;;;;4988550;28;20042;-78
2022/03/10 06:07:28;;;;;;;71.20;44.90;;;5.20;74.40;;;;;;5000117;28;20069;-78
2022/03/10 06:09:55;;;;;;;76.43;44.50;;;5.20;74.30;;;;;;5009246;28;20038;-77
2022/03/10 06:12:25;;;;;;;67.80;39.35;;;5.20;74.20;;;;;;5000418;28;20046;-77
2022/03/10 06:14:55;;;;;;;66.78;39.60;;;5.30;73.30;;;;;;4995553;28;20494;-78
2022/03/10 06:17:21;;;;;;;67.85;41.42;;;5.50;73.10;;;;;;4990738;28;20182;-78
2022/03/10 06:19:47;;;;;;;66.32;40.03;;;5.70;71.90;;;;;;4997242;28;20031;-77
2022/03/10 06:22:21;;;;;;;62.65;37.85;;;5.80;70.70;;;;;;4987700;28;20044;-77
2022/03/10 06:24:47;;;;;;;66.18;38.58;;;5.90;70.20;;;;;;5002470;28;20110;-77
2022/03/10 06:27:14;;;;;;;64.47;37.70;;;5.90;68.80;;;;;;4999576;28;20394;-77
2022/03/10 06:29:41;;;;;;;59.50;35.03;;;6.00;68.30;;;;;;5005929;28;20069;-77
2022/03/10 06:32:07;;;;;;;59.50;38.05;;;6.10;68.50;;;;;;5005874;28;20044;-77
2022/03/10 06:34:33;;;;;;;63.85;35.30;;;6.10;67.30;;;;;;4989306;28;20052;-77
2022/03/10 06:36:59;;;;;;;66.45;39.78;;;6.10;67.10;;;;;;5012530;28;20117;-79
2022/03/10 06:39:25;;;;;;;69.93;41.65;;;6.10;66.90;;;;;;5006923;28;20553;-78
2022/03/10 06:41:50;;;;;;;64.57;37.80;;;6.20;67.30;;;;;;4987549;28;20038;-81
2022/03/10 06:44:16;;;;;;;69.30;42.53;;;6.10;67.30;;;;;;5005335;28;20418;-81
2022/03/10 06:46:42;;;;;;;69.32;40.03;;;6.10;67.10;;;;;;4997594;28;20046;-81
2022/03/10 06:49:08;;;;;;;70.60;41.40;;;6.10;67.80;;;;;;4998323;28;20167;-80
2022/03/10 06:51:33;;;;;;;68.28;38.67;;;6.00;68.30;;;;;;4982562;28;20053;-78
2022/03/10 06:53:59;;;;;;;66.63;40.65;;;6.00;69.10;;;;;;5006336;28;20078;-78
2022/03/10 06:56:25;;;;;;;69.85;41.42;;;6.10;69.20;;;;;;5005416;28;20050;-79
2022/03/10 06:58:51;;;;;;;68.30;42.33;;;6.10;69.00;;;;;;5007085;28;20041;-79
2022/03/10 07:01:18;;;;;;;68.50;42.80;;;6.00;70.10;;;;;;5005467;28;20046;-79
2022/03/10 07:03:43;;;;;;;66.90;41.10;;;6.10;70.00;;;;;;5011108;28;20033;-79
2022/03/10 07:06:09;;;;;;;72.47;42.38;;;6.10;70.30;;;;;;5007967;28;20406;-79
2022/03/10 07:08:35;;;;;;;79.05;44.80;;;6.00;70.40;;;;;;4989502;28;20061;-78
2022/03/10 07:11:00;;;;;;;73.60;43.55;;;6.10;70.80;;;;;;5008806;28;20037;-78
2022/03/10 07:13:26;;;;;;;67.13;41.97;;;6.10;70.90;;;;;;5011967;28;20035;-79
2022/03/10 07:15:52;;;;;;;69.72;42.95;;;6.20;71.40;;;;;;5020135;28;20057;-82
2022/03/10 07:18:17;;;;;;;70.38;42.90;;;6.20;70.80;;;;;;5006047;28;20093;-84
2022/03/10 07:20:43;;;;;;;67.82;42.20;;;6.30;70.40;;;;;;5016298;28;20038;-80
2022/03/10 07:23:09;;;;;;;72.78;42.42;;;6.30;70.80;;;;;;5002987;28;20108;-80
2022/03/10 07:25:34;;;;;;;71.38;42.65;;;6.40;70.30;;;;;;4984822;28;20134;-79
2022/03/10 07:28:00;;;;;;;68.28;40.42;;;6.40;70.10;;;;;;4996747;28;20042;-84
2022/03/10 07:30:26;;;;;;;71.57;41.28;;;6.40;70.40;;;;;;5011864;28;20048;-81
2022/03/10 07:32:51;;;;;;;68.75;41.65;;;6.60;70.70;;;;;;5007720;28;20070;-83
2022/03/10 07:35:17;;;;;;;67.05;40.65;;;6.80;70.00;;;;;;5003690;28;20089;-83
2022/03/10 07:37:44;;;;;;;67.88;41.60;;;7.00;69.50;;;;;;4996737;28;20042;-82
2022/03/10 07:40:11;;;;;;;70.53;44.42;;;7.10;69.30;;;;;;4996971;28;20066;-82
2022/03/10 07:42:36;;;;;;;68.68;43.65;;;7.20;69.10;;;;;;5006483;28;20034;-82
2022/03/10 07:45:02;;;;;;;73.47;41.33;;;7.10;68.50;;;;;;5016383;28;20096;-79
2022/03/10 07:47:28;;;;;;;74.43;44.55;;;7.10;68.60;;;;;;5016143;28;20049;-82
2022/03/10 07:49:54;;;;;;;70.40;41.65;;;7.20;68.80;;;;;;4998024;28;20038;-82
2022/03/10 07:52:20;;;;;;;71.88;44.58;;;7.30;68.90;;;;;;5016537;28;20464;-81
2022/03/10 07:54:45;;;;;;;69.63;41.83;;;7.40;68.60;;;;;;5003711;28;20092;-79
2022/03/10 07:57:11;;;;;;;63.80;41.13;;;7.50;68.60;;;;;;4995864;28;20113;-78
2022/03/10 07:59:37;;;;;;;65.30;42.35;;;7.60;68.70;;;;;;4979099;28;20040;-79
2022/03/10 08:02:02;;;;;;;68.78;42.88;;;7.70;68.80;;;;;;4979084;28;20470;-78
2022/03/10 08:04:28;;;;;;;68.55;43.13;;;7.80;67.90;;;;;;4979202;28;20043;-79
2022/03/10 08:06:54;;;;;;;65.93;42.40;;;7.80;68.00;;;;;;5010804;28;20455;-79
2022/03/10 08:09:20;;;;;;;70.18;43.92;;;7.90;67.70;;;;;;4998160;28;20128;-79
2022/03/10 08:11:46;;;;;;;58.70;38.20;;;8.00;67.30;;;;;;5015626;28;20417;-79
2022/03/10 08:14:12;;;;;;;75.47;46.40;;;8.20;67.70;;;;;;4998449;28;20052;-79
2022/03/10 08:16:37;;;;;;;70.57;44.67;;;8.40;65.80;;;;;;5024235;28;20493;-80
2022/03/10 08:19:03;;;;;;;69.57;42.33;;;8.40;66.20;;;;;;5001876;28;20474;-80
2022/03/10 08:21:29;;;;;;;72.38;45.35;;;8.60;66.20;;;;;;4995640;28;20034;-79
2022/03/10 08:23:55;;;;;;;59.85;41.60;;;8.70;65.40;;;;;;4978667;28;20034;-79
2022/03/10 08:26:21;;;;;;;68.30;44.72;;;8.80;65.50;;;;;;5008981;28;20038;-79
2022/03/10 08:28:51;;;;;;;71.00;44.70;;;8.90;64.50;;;;;;5017536;28;20114;-79
2022/03/10 08:31:18;;;;;;;63.40;43.25;;;9.00;64.30;;;;;;5009331;28;20038;-78
2022/03/10 08:33:44;;;;;;;72.38;47.72;;;9.00;64.40;;;;;;5032277;28;20033;-78
2022/03/10 08:36:10;;;;;;;79.25;49.53;;;9.10;63.50;;;;;;5028189;28;20406;-78
2022/03/10 08:38:36;;;;;;;71.90;46.88;;;9.00;63.30;;;;;;5024778;28;20061;-78
2022/03/10 08:41:02;;;;;;;73.10;45.80;;;8.90;63.70;;;;;;5010653;28;20122;-77
2022/03/10 08:43:29;;;;;;;73.82;46.92;;;9.00;63.90;;;;;;5018738;28;20038;-78
2022/03/10 08:45:55;;;;;;;78.28;50.45;;;9.10;63.30;;;;;;4994319;28;20045;-77
2022/03/10 08:48:21;;;;;;;66.65;45.45;;;9.20;62.60;;;;;;4999563;28;20651;-80
2022/03/10 08:50:47;;;;;;;80.63;49.63;;;9.30;62.80;;;;;;5027440;28;20056;-79
2022/03/10 08:53:13;;;;;;;72.20;45.22;;;9.40;62.20;;;;;;5013156;28;20064;-79
2022/03/10 08:55:38;;;;;;;78.07;48.25;;;9.50;62.20;;;;;;5006072;28;20045;-79
2022/03/10 08:58:04;;;;;;;75.50;48.08;;;9.70;61.30;;;;;;4997290;28;20132;-80
2022/03/10 09:00:30;;;;;;;66.45;45.63;;;9.70;60.90;;;;;;5028417;28;20038;-77
2022/03/10 09:02:57;;;;;;;72.55;46.00;;;9.80;60.60;;;;;;4998037;28;20057;-77
2022/03/10 09:05:23;;;;;;;68.45;42.92;;;10.00;58.80;;;;;;5005770;28;20061;-78
2022/03/10 09:07:48;;;;;;;59.45;36.70;;;10.30;59.60;;;;;;4999280;28;20535;-78
2022/03/10 09:10:15;;;;;;;59.50;40.22;;;10.60;60.30;;;;;;4995595;28;20470;-81
2022/03/10 09:12:41;;;;;;;64.75;38.88;;;11.00;59.80;;;;;;5007451;28;20034;-78
2022/03/10 09:15:08;;;;;;;68.78;44.92;;;11.30;59.80;;;;;;5008374;28;20076;-77
2022/03/10 09:17:34;;;;;;;76.90;49.03;;;11.60;57.80;;;;;;4984456;28;20092;-82
2022/03/10 09:19:59;;;;;;;60.17;43.35;;;11.70;56.00;;;;;;5006560;28;20424;-83
2022/03/10 09:22:26;;;;;;;59.20;41.72;;;11.90;60.60;;;;;;5027299;28;20041;-82
2022/03/10 09:24:54;;;;;;;61.85;40.80;;;12.10;60.50;;;;;;4986274;28;20054;-82
2022/03/10 09:27:21;;;;;;;61.85;44.40;;;12.40;59.80;;;;;;5016336;28;20061;-78
2022/03/10 09:29:47;;;;;;;65.75;46.17;;;12.60;57.40;;;;;;5006908;28;20049;-82
2022/03/10 09:32:12;;;;;;;71.15;51.05;;;12.90;56.20;;;;;;5020841;28;20034;-81
2022/03/10 09:34:38;;;;;;;70.28;48.63;;;13.00;53.10;;;;;;5003890;28;20038;-82
2022/03/10 09:37:06;;;;;;;67.97;49.08;;;13.10;52.00;;;;;;5012405;28;20064;-81
2022/03/10 09:39:32;;;;;;;75.05;50.63;;;13.20;52.40;;;;;;5016259;28;20188;-79
2022/03/10 09:42:03;;;;;;;71.53;47.80;;;13.30;52.30;;;;;;4982063;28;20030;-83
2022/03/10 09:44:30;;;;;;;71.90;50.97;;;13.50;51.90;;;;;;4993843;28;20368;-81
2022/03/10 09:47:02;;;;;;;70.05;49.75;;;13.60;49.90;;;;;;5013682;28;20044;-81
2022/03/10 09:49:28;;;;;;;68.70;47.53;;;13.80;49.10;;;;;;4996231;28;20089;-82
2022/03/10 09:51:55;;;;;;;73.03;50.35;;;14.00;49.30;;;;;;5010417;28;20061;-81
2022/03/10 09:54:21;;;;;;;69.85;47.25;;;14.00;48.80;;;;;;5007499;28;20034;-81
2022/03/10 09:56:48;;;;;;;61.40;45.50;;;14.20;49.70;;;;;;5003450;28;20112;-79
2022/03/10 09:59:13;;;;;;;75.85;51.30;;;14.40;49.90;;;;;;5003107;28;20037;-80
2022/03/10 10:01:39;;;;;;;68.13;49.17;;;14.60;46.60;;;;;;5006379;28;20030;-80
2022/03/10 10:04:06;;;;;;;66.32;46.38;;;14.70;45.50;;;;;;5006792;28;20113;-80
2022/03/10 10:06:58;;;;;;;66.80;46.38;;;14.80;45.90;;;;;;5006437;28;20049;-80
2022/03/10 10:09:37;;;;;;;56.70;40.92;;;14.80;42.60;;;;;;4994883;28;20113;-77
2022/03/10 10:12:07;;;;;;;62.43;42.00;;;14.90;42.70;;;;;;4986443;28;20097;-80
2022/03/10 10:14:39;;;;;;;52.85;38.92;;;15.10;42.20;;;;;;5017434;28;20022;-80
2022/03/10 10:17:05;;;;;;;67.78;42.92;;;15.30;41.40;;;;;;5012435;28;20052;-80
2022/03/10 10:19:34;;;;;;;72.65;45.45;;;15.50;40.00;;;;;;5019255;28;20101;-80
2022/03/10 10:22:20;;;;;;;63.40;44.37;;;15.40;39.30;;;;;;5032988;28;20038;-81
2022/03/10 10:25:06;;;;;;;54.13;39.40;;;15.40;39.10;;;;;;5013133;28;20336;-80
2022/03/10 10:27:33;;;;;;;61.80;43.28;;;15.50;40.60;;;;;;4978583;28;20049;-80
2022/03/10 10:30:01;;;;;;;59.60;42.40;;;15.60;39.70;;;;;;5005948;28;20065;-80
2022/03/10 10:32:35;;;;;;;52.42;38.97;;;15.70;41.10;;;;;;4995012;28;20061;-82
2022/03/10 10:35:10;;;;;;;51.13;37.83;;;15.80;39.80;;;;;;5011891;28;20133;-81
2022/03/10 10:37:39;;;;;;;67.63;45.97;;;16.00;40.00;;;;;;5009069;28;20038;-81
2022/03/10 10:40:06;;;;;;;62.53;45.67;;;16.20;38.20;;;;;;4997573;28;20081;-80
2022/03/10 10:42:38;;;;;;;61.17;43.33;;;16.20;38.20;;;;;;5005919;28;20092;-79
2022/03/10 10:45:31;;;;;;;66.47;44.67;;;16.20;39.10;;;;;;4981439;28;20039;-80
2022/03/10 10:47:59;;;;;;;62.05;44.60;;;16.30;38.10;;;;;;4997321;28;20099;-81
2022/03/10 10:50:27;;;;;;;54.08;38.83;;;16.40;36.70;;;;;;5008292;28;20030;-81
2022/03/10 10:52:53;;;;;;;62.63;41.30;;;16.40;34.70;;;;;;4992407;28;20045;-81
2022/03/10 10:55:19;;;;;;;54.08;38.47;;;16.60;36.90;;;;;;5001268;28;20038;-83
2022/03/10 10:57:44;;;;;;;57.22;41.67;;;16.70;37.10;;;;;;5005304;28;20450;-83
2022/03/10 11:00:13;;;;;;;53.22;40.45;;;16.90;35.80;;;;;;4999993;28;20129;-82
2022/03/10 11:02:42;;;;;;;55.47;39.60;;;17.00;36.10;;;;;;4999846;28;20509;-82
2022/03/10 11:05:11;;;;;;;55.03;40.70;;;17.10;35.00;;;;;;4979716;28;20030;-82
2022/03/10 11:07:39;;;;;;;62.10;40.60;;;17.20;35.20;;;;;;5001578;28;20039;-83
2022/03/10 11:10:07;;;;;;;57.85;39.10;;;17.30;35.10;;;;;;5013688;28;20038;-84
2022/03/10 11:12:34;;;;;;;64.25;42.90;;;17.30;38.00;;;;;;5001707;28;20034;-83
2022/03/10 11:15:00;;;;;;;66.05;44.25;;;17.30;34.80;;;;;;4982664;28;20101;-83
2022/03/10 11:17:27;;;;;;;54.75;38.85;;;17.40;33.60;;;;;;4982310;28;20039;-83
2022/03/10 11:19:56;;;;;;;59.63;43.38;;;17.60;36.80;;;;;;5013765;28;20049;-83
2022/03/10 11:22:28;;;;;;;60.33;41.58;;;17.70;33.70;;;;;;5003635;28;20034;-83
2022/03/10 11:24:56;;;;;;;56.90;40.10;;;17.80;35.00;;;;;;5003651;28;20113;-82
2022/03/10 11:27:52;;;;;;;65.22;46.20;;;18.10;34.50;;;;;;4988693;28;20038;-82
2022/03/10 11:30:23;;;;;;;59.75;41.92;;;18.20;32.50;;;;;;5007039;28;20044;-81
2022/03/10 11:32:59;;;;;;;65.05;44.40;;;18.30;33.60;;;;;;4991604;28;20034;-82
2022/03/10 11:35:49;;;;;;;74.55;49.95;;;18.40;32.60;;;;;;5013425;28;20037;-81
2022/03/10 11:38:16;;;;;;;62.42;43.78;;;18.20;32.50;;;;;;5009940;28;20096;-82
2022/03/10 11:40:56;;;;;;;64.25;44.60;;;18.40;33.90;;;;;;5016593;28;20041;-78
2022/03/10 11:43:29;;;;;;;61.78;44.10;;;18.70;34.80;;;;;;5006959;28;20062;-78
2022/03/10 11:46:17;;;;;;;56.90;41.05;;;18.90;32.00;;;;;;5017870;28;20027;-77
2022/03/10 11:48:43;;;;;;;66.30;44.42;;;19.30;32.30;;;;;;5018520;28;20405;-77
2022/03/10 11:51:17;;;;;;;64.82;44.40;;;19.70;30.10;;;;;;5032294;28;20033;-77
2022/03/10 11:53:56;;;;;;;61.55;43.70;;;20.20;29.90;;;;;;5015435;28;20069;-78
2022/03/10 11:56:43;;;;;;;62.03;43.22;;;20.70;28.70;;;;;;5015108;28;20081;-77
2022/03/10 11:59:23;;;;;;;67.28;46.80;;;20.90;27.80;;;;;;5021318;28;20034;-78
2022/03/10 12:01:50;;;;;;;59.90;43.88;;;20.90;27.40;;;;;;5025076;28;20030;-77
2022/03/10 12:04:17;;;;;;;58.63;43.42;;;21.40;28.50;;;;;;5029180;28;20022;-78
2022/03/10 12:06:57;;;;;;;65.80;43.40;;;21.70;27.90;;;;;;5036670;28;20049;-77
2022/03/10 12:09:30;;;;;;;59.97;43.22;;;21.80;26.50;;;;;;5027659;28;20057;-78
2022/03/10 12:12:16;;;;;;;62.55;46.75;;;21.80;27.20;;;;;;5011007;28;20038;-77
2022/03/10 12:14:42;;;;;;;59.72;44.53;;;21.80;26.00;;;;;;5010187;28;20104;-79
2022/03/10 12:17:42;;;;;;;65.20;43.00;;;21.60;25.20;;;;;;4997502;28;20058;-79
2022/03/10 12:20:14;;;;;;;61.97;41.13;;;21.40;25.30;;;;;;5001598;28;20030;-79
2022/03/10 12:22:40;;;;;;;59.83;41.05;;;21.70;26.00;;;;;;5004742;28;20050;-79
2022/03/10 12:25:20;;;;;;;56.15;41.78;;;22.30;25.90;;;;;;5011057;28;20034;-80
2022/03/10 12:27:53;;;;;;;61.75;46.08;;;22.10;26.50;;;;;;4999732;28;20042;-79
2022/03/10 12:30:21;;;;;;;59.45;41.30;;;22.20;24.80;;;;;;4994052;28;20042;-78
2022/03/10 12:32:50;;;;;;;57.53;42.83;;;22.10;25.80;;;;;;5021173;28;20101;-78
2022/03/10 12:35:25;;;;;;;51.60;40.22;;;21.90;24.40;;;;;;5004928;28;20049;-78
2022/03/10 12:37:51;;;;;;;57.25;42.55;;;22.00;26.20;;;;;;5017039;28;20501;-77
2022/03/10 12:40:25;;;;;;;58.17;43.78;;;22.00;25.30;;;;;;5004128;28;20030;-77
2022/03/10 12:42:57;;;;;;;58.42;44.05;;;21.40;24.70;;;;;;5009897;28;20048;-77